Karlsborg, Sweden
Current Conditions -  °F | °C
As of 5:20 AM on Saturday 20 Dec 2014 (Local Time) from ESGR Reporting Station
Clear Clear  
Wind Chill: 30°   Ceiling: Unl
Heat Index: 39°   Visibility: 6mi
Dew Point: 34°   Wind: 17mph
Humidity: 81%   Direction: 240°WSW
Pressure: 29.18"   Gusts: 29mph
Location:  58.54°N, 14.5°E
Report Text: ESGR 200420Z AUTO 24015G25KT 9999 NCD 04/01 Q0988
Loading
Personal Weather Stations






























Interactive Weather Map New forecast layout! Learn more

10-Day Weather Forecast

Advertisements
Track Severe Weather on mobile